Time;durP1;ratioP1;P1;durP2;ratioP2;P2;SDS_P1;SDS_P2;PMS_P1;PMS_P2;Temp;Humidity;BMP_temperature;BMP_pressure;BME280_temperature;BME280_humidity;BME280_pressure;Samples;Min_cycle;Max_cycle;Signal;HPM_P1;HPM_P2
2021/07/22 00:00:23;;;;;;;0.10;0.10;;;23.00;72.00;;;;;;4196452;27;20051;-53
2021/07/22 00:02:45;;;;;;;0.28;0.28;;;23.00;72.10;;;;;;4211123;28;20040;-52
2021/07/22 00:05:09;;;;;;;1.08;0.75;;;23.00;72.10;;;;;;4210964;28;20418;-48
2021/07/22 00:07:33;;;;;;;0.45;0.45;;;23.00;72.10;;;;;;4210553;28;20056;-52
2021/07/22 00:09:56;;;;;;;0.20;0.20;;;23.00;72.10;;;;;;4210164;28;20044;-52
2021/07/22 00:12:18;;;;;;;0.10;0.10;;;23.00;72.10;;;;;;4210581;28;20410;-51
2021/07/22 00:14:42;;;;;;;0.90;0.80;;;23.00;73.10;;;;;;4208962;28;20044;-50
2021/07/22 00:17:04;;;;;;;0.47;0.47;;;23.00;72.20;;;;;;4209578;28;20044;-48
2021/07/22 00:19:26;;;;;;;0.00;0.00;;;23.00;72.30;;;;;;4208896;28;20460;-49
2021/07/22 00:21:48;;;;;;;0.47;0.47;;;23.00;72.30;;;;;;4210435;28;20105;-50
2021/07/22 00:24:11;;;;;;;0.00;0.00;;;23.00;72.30;;;;;;4210208;28;20043;-48
2021/07/22 00:26:33;;;;;;;0.00;0.00;;;23.00;72.30;;;;;;4210625;28;20055;-53
2021/07/22 00:28:57;;;;;;;0.00;0.00;;;23.00;72.30;;;;;;4210295;28;20056;-51
2021/07/22 00:31:19;;;;;;;0.22;0.22;;;23.00;72.40;;;;;;4210302;28;20064;-50
2021/07/22 00:33:41;;;;;;;0.75;0.43;;;23.00;72.60;;;;;;4209955;28;20056;-52
2021/07/22 00:36:08;;;;;;;1.25;0.85;;;23.00;72.70;;;;;;4210280;28;20102;-52
2021/07/22 00:38:31;;;;;;;0.20;0.20;;;23.00;72.70;;;;;;4208023;28;20840;-52
2021/07/22 00:40:56;;;;;;;0.00;0.00;;;23.00;72.80;;;;;;4209223;28;20056;-48
2021/07/22 00:43:18;;;;;;;0.20;0.20;;;23.00;72.80;;;;;;4210632;28;20912;-50
2021/07/22 00:45:40;;;;;;;0.00;0.00;;;23.00;72.80;;;;;;4237749;27;20463;-54
2021/07/22 00:48:02;;;;;;;0.30;0.30;;;23.00;72.90;;;;;;4208971;28;20043;-49
2021/07/22 00:50:25;;;;;;;0.30;0.30;;;23.00;72.90;;;;;;4192213;28;20052;-50
2021/07/22 00:52:47;;;;;;;0.20;0.20;;;22.90;72.90;;;;;;4206913;28;20105;-49
2021/07/22 00:55:09;;;;;;;0.22;0.22;;;22.90;72.90;;;;;;4210441;28;20121;-52
2021/07/22 00:57:34;;;;;;;0.00;0.00;;;22.90;72.90;;;;;;4199496;28;20062;-49
2021/07/22 00:59:56;;;;;;;0.93;0.93;;;22.90;73.00;;;;;;4207438;27;20058;-51
2021/07/22 01:02:18;;;;;;;0.08;0.08;;;22.90;73.00;;;;;;4210443;28;20052;-48
2021/07/22 01:04:41;;;;;;;0.00;0.00;;;22.90;73.00;;;;;;4208953;28;20059;-51
2021/07/22 01:07:03;;;;;;;0.00;0.00;;;22.90;73.10;;;;;;4209916;28;20060;-50
2021/07/22 01:09:25;;;;;;;0.40;0.40;;;22.90;73.10;;;;;;4191782;28;20052;-51
2021/07/22 01:11:54;;;;;;;0.17;0.17;;;22.90;73.10;;;;;;4204560;28;20044;-53
2021/07/22 01:14:19;;;;;;;0.70;0.70;;;22.90;73.30;;;;;;4208529;27;20056;-51
2021/07/22 01:16:44;;;;;;;0.70;0.47;;;22.90;73.10;;;;;;4208348;28;20559;-49
2021/07/22 01:19:08;;;;;;;0.00;0.00;;;22.90;73.10;;;;;;4209876;28;20051;-49
2021/07/22 01:21:32;;;;;;;0.17;0.17;;;22.90;73.20;;;;;;4208301;28;20056;-50
2021/07/22 01:23:57;;;;;;;0.10;0.10;;;22.90;73.20;;;;;;4208381;28;20125;-49
2021/07/22 01:26:29;;;;;;;0.10;0.10;;;22.90;73.20;;;;;;4209000;28;20498;-49
2021/07/22 01:28:57;;;;;;;1.30;0.95;;;22.90;73.30;;;;;;4191206;28;20437;-56
2021/07/22 01:31:24;;;;;;;0.32;0.30;;;22.90;73.30;;;;;;4191689;28;20052;-54
2021/07/22 01:33:46;;;;;;;0.30;0.30;;;22.90;73.30;;;;;;4190318;28;20052;-54
2021/07/22 01:36:10;;;;;;;0.00;0.00;;;22.90;73.30;;;;;;4178475;28;20068;-49
2021/07/22 01:38:33;;;;;;;0.15;0.15;;;22.80;73.30;;;;;;4192969;28;20047;-51
2021/07/22 01:40:55;;;;;;;0.60;0.60;;;22.80;73.40;;;;;;4200114;28;20058;-50
2021/07/22 01:43:17;;;;;;;0.43;0.43;;;22.80;73.40;;;;;;4208089;28;20403;-51
2021/07/22 01:45:45;;;;;;;0.20;0.17;;;22.80;73.40;;;;;;4208268;28;20635;-48
2021/07/22 01:48:08;;;;;;;0.35;0.13;;;22.80;73.50;;;;;;4207689;28;20040;-51
2021/07/22 01:50:30;;;;;;;0.10;0.10;;;22.80;73.40;;;;;;4207957;28;20129;-51
2021/07/22 01:52:54;;;;;;;2.45;0.90;;;22.80;73.50;;;;;;4209337;28;20574;-52
2021/07/22 01:55:18;;;;;;;0.20;0.17;;;22.90;73.60;;;;;;4207543;28;20514;-51
2021/07/22 01:57:47;;;;;;;0.55;0.30;;;22.80;73.60;;;;;;4207681;28;20581;-54
2021/07/22 02:00:10;;;;;;;4.07;0.47;;;22.80;73.50;;;;;;4207870;28;20196;-52
2021/07/22 02:02:38;;;;;;;0.43;0.43;;;22.80;73.60;;;;;;4208668;28;20736;-48
2021/07/22 02:05:03;;;;;;;0.00;0.00;;;22.80;73.60;;;;;;4191056;28;20041;-48
2021/07/22 02:07:25;;;;;;;0.00;0.00;;;22.80;73.70;;;;;;4208811;28;20044;-52
2021/07/22 02:09:54;;;;;;;0.10;0.10;;;22.80;74.60;;;;;;4206990;28;20044;-48
2021/07/22 02:12:18;;;;;;;0.40;0.40;;;22.80;73.70;;;;;;4208935;28;20164;-51
2021/07/22 02:14:42;;;;;;;0.17;0.17;;;22.80;73.80;;;;;;4209154;28;20563;-51
2021/07/22 02:17:08;;;;;;;0.75;0.75;;;22.80;73.80;;;;;;4208686;28;20044;-49
2021/07/22 02:19:31;;;;;;;0.25;0.25;;;22.80;73.80;;;;;;4207103;28;20134;-47
2021/07/22 02:21:58;;;;;;;0.75;0.75;;;22.80;73.80;;;;;;4207007;28;20441;-50
2021/07/22 02:24:21;;;;;;;0.17;0.17;;;22.80;73.80;;;;;;4208755;28;20056;-51
2021/07/22 02:26:52;;;;;;;0.00;0.00;;;22.80;73.90;;;;;;4199405;28;20041;-49
2021/07/22 02:29:15;;;;;;;0.30;0.30;;;22.80;73.90;;;;;;4193016;28;20518;-50
2021/07/22 02:31:39;;;;;;;0.00;0.00;;;22.80;73.90;;;;;;4208821;28;20060;-51
2021/07/22 02:34:06;;;;;;;0.00;0.00;;;22.80;74.00;;;;;;4208510;28;20135;-51
2021/07/22 02:36:28;;;;;;;0.25;0.25;;;22.80;74.00;;;;;;4190441;28;20090;-50
2021/07/22 02:39:17;;;;;;;0.43;0.43;;;22.80;74.00;;;;;;4191943;28;20162;-48
2021/07/22 02:41:40;;;;;;;0.10;0.10;;;22.70;73.90;;;;;;4190701;28;20114;-50
2021/07/22 02:44:03;;;;;;;0.20;0.20;;;22.80;74.00;;;;;;4207205;28;20112;-51
2021/07/22 02:46:29;;;;;;;0.00;0.00;;;22.70;74.00;;;;;;4208739;27;20048;-51
2021/07/22 02:48:57;;;;;;;0.08;0.08;;;22.70;74.00;;;;;;4208028;28;20052;-49
2021/07/22 02:51:21;;;;;;;0.00;0.00;;;22.70;74.00;;;;;;4207194;28;20060;-52
2021/07/22 02:53:43;;;;;;;0.32;0.32;;;22.70;74.00;;;;;;4207965;28;20509;-49
2021/07/22 02:56:15;;;;;;;0.00;0.00;;;22.70;74.00;;;;;;4207950;28;20054;-51
2021/07/22 02:58:39;;;;;;;0.75;0.75;;;22.70;74.10;;;;;;4207005;28;20048;-47
2021/07/22 03:01:01;;;;;;;0.55;0.52;;;22.70;74.10;;;;;;4206944;28;20051;-51
2021/07/22 03:03:25;;;;;;;1.65;0.30;;;22.70;74.10;;;;;;4206938;28;20055;-49
2021/07/22 03:05:51;;;;;;;0.25;0.25;;;22.70;74.10;;;;;;4207158;28;20056;-47
2021/07/22 03:08:14;;;;;;;0.00;0.00;;;22.70;74.20;;;;;;4206466;28;20039;-48
2021/07/22 03:10:36;;;;;;;0.22;0.22;;;22.70;74.20;;;;;;4206635;28;20048;-53
2021/07/22 03:12:59;;;;;;;0.03;0.03;;;22.70;74.30;;;;;;4208509;28;20502;-50
2021/07/22 03:15:22;;;;;;;0.52;0.52;;;22.70;74.30;;;;;;4208526;28;20056;-48
2021/07/22 03:17:44;;;;;;;0.30;0.30;;;22.70;74.30;;;;;;4193332;28;20125;-53
2021/07/22 03:20:09;;;;;;;1.17;0.80;;;22.70;74.30;;;;;;4206585;28;20098;-52
2021/07/22 03:22:40;;;;;;;0.08;0.08;;;22.70;74.30;;;;;;4190454;28;20109;-48
2021/07/22 03:25:29;;;;;;;0.00;0.00;;;22.70;74.30;;;;;;4205975;28;20051;-48
2021/07/22 03:28:20;;;;;;;0.10;0.10;;;22.60;74.30;;;;;;4204540;28;20048;-53
2021/07/22 03:30:53;;;;;;;0.10;0.10;;;22.60;74.30;;;;;;4205394;28;20043;-51
2021/07/22 03:33:36;;;;;;;0.08;0.08;;;22.60;74.30;;;;;;4207565;28;20087;-49
2021/07/22 03:36:12;;;;;;;2.45;0.63;;;22.60;74.30;;;;;;4207084;28;20074;-49
2021/07/22 03:38:37;;;;;;;0.25;0.25;;;22.70;74.40;;;;;;4207403;28;20414;-47
2021/07/22 03:41:24;;;;;;;0.08;0.08;;;22.60;74.40;;;;;;4191394;27;20040;-51
2021/07/22 03:43:52;;;;;;;0.35;0.35;;;22.60;74.40;;;;;;4205949;28;20098;-50
2021/07/22 03:46:15;;;;;;;0.08;0.08;;;22.60;74.40;;;;;;4206292;28;20058;-50
2021/07/22 03:48:37;;;;;;;0.45;0.22;;;22.60;74.50;;;;;;4189317;28;20053;-50
2021/07/22 03:51:01;;;;;;;0.00;0.00;;;22.60;74.50;;;;;;4189524;28;20471;-49
2021/07/22 03:53:25;;;;;;;0.22;0.22;;;22.60;74.50;;;;;;4191072;28;20495;-51
2021/07/22 03:55:48;;;;;;;0.20;0.20;;;22.60;74.50;;;;;;4190576;28;20088;-52
2021/07/22 03:58:33;;;;;;;0.10;0.10;;;22.60;74.50;;;;;;4206025;28;20044;-51
2021/07/22 04:01:15;;;;;;;0.08;0.08;;;22.60;74.60;;;;;;4207337;28;20048;-49
2021/07/22 04:03:38;;;;;;;0.00;0.00;;;22.60;74.60;;;;;;4206144;28;20092;-51
2021/07/22 04:06:03;;;;;;;0.00;0.00;;;22.60;74.60;;;;;;4205151;28;20055;-49
2021/07/22 04:08:27;;;;;;;0.00;0.00;;;22.60;74.60;;;;;;4205615;28;20051;-47
2021/07/22 04:11:09;;;;;;;0.10;0.10;;;22.60;74.60;;;;;;4207290;28;20048;-52
2021/07/22 04:13:57;;;;;;;0.00;0.00;;;22.60;75.60;;;;;;4191676;28;20117;-51
2021/07/22 04:16:39;;;;;;;0.85;0.30;;;22.50;74.70;;;;;;4207256;28;20072;-51
2021/07/22 04:19:19;;;;;;;0.00;0.00;;;22.50;74.70;;;;;;4205817;27;20044;-49
2021/07/22 04:22:00;;;;;;;0.00;0.00;;;22.50;74.70;;;;;;4207474;28;20052;-52
2021/07/22 04:24:50;;;;;;;0.00;0.00;;;22.50;74.70;;;;;;4205581;28;20051;-50
2021/07/22 04:27:29;;;;;;;0.08;0.08;;;22.50;74.70;;;;;;4205657;28;20104;-53
2021/07/22 04:30:09;;;;;;;0.00;0.00;;;22.50;74.70;;;;;;4207032;28;20071;-50
2021/07/22 04:32:51;;;;;;;0.32;0.32;;;22.50;74.70;;;;;;4206907;28;20051;-52
2021/07/22 04:35:24;;;;;;;0.00;0.00;;;22.50;74.70;;;;;;4194252;28;20071;-51
2021/07/22 04:38:05;;;;;;;0.00;0.00;;;22.50;74.80;;;;;;4190499;27;20105;-49
2021/07/22 04:40:59;;;;;;;0.03;0.03;;;22.50;74.70;;;;;;4189089;28;20453;-49
2021/07/22 04:43:57;;;;;;;0.10;0.10;;;22.50;74.70;;;;;;4188088;28;20055;-51
2021/07/22 04:46:37;;;;;;;0.00;0.00;;;22.50;74.70;;;;;;4193711;28;20053;-49
2021/07/22 04:49:13;;;;;;;0.10;0.10;;;22.50;74.80;;;;;;4193233;28;20550;-48
2021/07/22 04:51:54;;;;;;;0.30;0.30;;;22.50;74.70;;;;;;4193640;28;20052;-49
2021/07/22 04:54:23;;;;;;;0.08;0.08;;;22.50;74.80;;;;;;4208525;28;20051;-48
2021/07/22 04:56:47;;;;;;;0.00;0.00;;;22.50;74.80;;;;;;4177519;28;20048;-47
2021/07/22 04:59:10;;;;;;;0.10;0.10;;;22.50;74.80;;;;;;4193556;28;20098;-48
2021/07/22 05:01:32;;;;;;;0.00;0.00;;;22.50;74.70;;;;;;4192171;28;20083;-52
2021/07/22 05:03:57;;;;;;;0.30;0.30;;;22.50;74.80;;;;;;4192114;28;20158;-50
2021/07/22 05:06:32;;;;;;;0.00;0.00;;;22.50;74.80;;;;;;4204280;28;20198;-52
2021/07/22 05:09:13;;;;;;;;;;;22.50;74.80;;;;;;4209732;28;20048;-50
2021/07/22 05:12:15;;;;;;;0.05;0.05;;;22.50;74.90;;;;;;4190817;28;20003;-53
2021/07/22 05:15:07;;;;;;;0.10;0.10;;;22.50;74.90;;;;;;4185661;28;20415;-51
2021/07/22 05:17:46;;;;;;;0.10;0.10;;;22.50;75.00;;;;;;4208896;28;20414;-50
2021/07/22 05:20:40;;;;;;;0.00;0.00;;;22.50;75.10;;;;;;4192843;28;20052;-48
2021/07/22 05:23:10;;;;;;;0.22;0.22;;;22.50;75.10;;;;;;4193240;28;20510;-50
2021/07/22 05:25:50;;;;;;;1.60;1.50;;;22.50;75.30;;;;;;4204346;28;20059;-51
2021/07/22 05:28:42;;;;;;;0.43;0.43;;;22.60;75.30;;;;;;4208516;28;20048;-52
2021/07/22 05:31:33;;;;;;;1.77;0.95;;;22.60;75.10;;;;;;4203305;28;20052;-52
2021/07/22 05:34:21;;;;;;;0.70;0.70;;;22.60;74.90;;;;;;4196442;28;20098;-49
2021/07/22 05:37:10;;;;;;;0.43;0.43;;;22.60;74.80;;;;;;4201218;28;20079;-49
2021/07/22 05:39:40;;;;;;;0.00;0.00;;;22.60;74.60;;;;;;4209094;28;20040;-47
2021/07/22 05:42:02;;;;;;;0.20;0.20;;;22.60;74.60;;;;;;4209492;28;20052;-48
2021/07/22 05:44:25;;;;;;;1.45;0.40;;;22.50;74.40;;;;;;4209163;28;20124;-48
2021/07/22 05:46:47;;;;;;;0.47;0.47;;;22.50;74.30;;;;;;4208828;28;20079;-50
2021/07/22 05:49:10;;;;;;;0.05;0.05;;;22.50;74.30;;;;;;4192623;28;20099;-47
2021/07/22 05:51:33;;;;;;;0.00;0.00;;;22.50;74.20;;;;;;4192504;28;20040;-49
2021/07/22 05:53:54;;;;;;;0.00;0.00;;;22.50;74.10;;;;;;4192120;28;20048;-47
2021/07/22 05:56:18;;;;;;;1.20;0.88;;;22.50;74.10;;;;;;4191148;28;20110;-50
2021/07/22 05:58:40;;;;;;;0.00;0.00;;;22.50;74.10;;;;;;4192752;28;20510;-50
2021/07/22 06:01:06;;;;;;;0.60;0.43;;;22.50;74.00;;;;;;4192340;28;20045;-46
2021/07/22 06:03:28;;;;;;;0.00;0.00;;;22.50;74.00;;;;;;4192618;28;22273;-52
2021/07/22 06:05:51;;;;;;;0.75;0.52;;;22.50;74.00;;;;;;4192247;28;20491;-49
2021/07/22 06:08:13;;;;;;;4.57;1.42;;;22.50;74.00;;;;;;4190988;28;20040;-49
2021/07/22 06:10:35;;;;;;;0.10;0.10;;;22.50;74.00;;;;;;4206117;28;20056;-54
2021/07/22 06:12:58;;;;;;;0.00;0.00;;;22.50;73.90;;;;;;4209145;28;20075;-52
2021/07/22 06:15:20;;;;;;;0.57;0.57;;;22.50;73.90;;;;;;4208983;28;20052;-49
2021/07/22 06:17:44;;;;;;;0.08;0.08;;;22.50;73.80;;;;;;4208927;28;20494;-52
2021/07/22 06:20:07;;;;;;;0.30;0.30;;;22.50;73.70;;;;;;4199527;28;20430;-48
2021/07/22 06:22:28;;;;;;;0.10;0.10;;;22.50;73.70;;;;;;4208776;28;20597;-48
2021/07/22 06:24:51;;;;;;;0.38;0.38;;;22.50;73.60;;;;;;4208298;28;20052;-46
2021/07/22 06:27:13;;;;;;;0.00;0.00;;;22.50;74.40;;;;;;4208818;28;20117;-48
2021/07/22 06:29:35;;;;;;;0.00;0.00;;;22.50;73.50;;;;;;4208671;28;20055;-47
2021/07/22 06:31:57;;;;;;;0.52;0.52;;;22.50;73.50;;;;;;4208567;28;20082;-48
2021/07/22 06:34:21;;;;;;;0.10;0.10;;;22.50;73.50;;;;;;4207873;28;20055;-48
2021/07/22 06:36:44;;;;;;;0.00;0.00;;;22.50;73.40;;;;;;4223283;27;20143;-48
2021/07/22 06:39:07;;;;;;;0.00;0.00;;;22.50;73.20;;;;;;4194653;28;20560;-46
2021/07/22 06:41:29;;;;;;;0.63;0.63;;;22.50;73.10;;;;;;4208712;28;20055;-47
2021/07/22 06:43:54;;;;;;;0.00;0.00;;;22.50;73.00;;;;;;4207254;28;20055;-45
2021/07/22 06:46:16;;;;;;;1.33;0.70;;;22.50;73.70;;;;;;4208188;28;20561;-48
2021/07/22 06:48:39;;;;;;;0.10;0.10;;;22.50;72.80;;;;;;4191693;28;20109;-46
2021/07/22 06:51:02;;;;;;;0.08;0.08;;;22.50;72.60;;;;;;4191295;28;20048;-49
2021/07/22 06:53:24;;;;;;;0.00;0.00;;;22.50;72.40;;;;;;4191219;28;20052;-50
2021/07/22 06:55:48;;;;;;;0.25;0.25;;;22.50;72.40;;;;;;4183851;28;20059;-49
2021/07/22 06:58:11;;;;;;;0.00;0.00;;;22.50;72.20;;;;;;4191332;28;20090;-52
2021/07/22 07:00:33;;;;;;;0.20;0.20;;;22.50;72.10;;;;;;4191409;28;20055;-47
2021/07/22 07:02:55;;;;;;;0.00;0.00;;;22.60;71.50;;;;;;4191491;28;20588;-46
2021/07/22 07:05:17;;;;;;;0.05;0.05;;;22.60;71.20;;;;;;4191222;28;20507;-47
2021/07/22 07:07:40;;;;;;;0.00;0.00;;;22.60;71.10;;;;;;4191218;28;20529;-46
2021/07/22 07:10:02;;;;;;;0.00;0.00;;;22.60;70.70;;;;;;4185731;28;20052;-46
2021/07/22 07:12:24;;;;;;;0.22;0.22;;;22.60;70.30;;;;;;4190997;28;20045;-46
2021/07/22 07:14:59;;;;;;;7.07;1.65;;;22.60;70.00;;;;;;4206546;28;20055;-46
2021/07/22 07:17:21;;;;;;;0.08;0.08;;;22.60;70.10;;;;;;4206559;28;20751;-48
2021/07/22 07:19:43;;;;;;;0.00;0.00;;;22.70;70.00;;;;;;4208023;28;20044;-47
2021/07/22 07:22:05;;;;;;;0.00;0.00;;;22.60;69.90;;;;;;4206469;28;20454;-49
2021/07/22 07:24:30;;;;;;;0.10;0.10;;;22.60;70.00;;;;;;4207573;28;20545;-47
2021/07/22 07:26:52;;;;;;;0.00;0.00;;;22.60;69.90;;;;;;4207500;28;20064;-46
2021/07/22 07:29:14;;;;;;;0.40;0.30;;;22.70;69.80;;;;;;4207552;27;20047;-47
2021/07/22 07:31:38;;;;;;;0.03;0.03;;;22.70;69.70;;;;;;4205989;28;20461;-49
2021/07/22 07:33:59;;;;;;;0.00;0.00;;;22.70;69.50;;;;;;4207647;27;20058;-46
2021/07/22 07:36:22;;;;;;;0.00;0.00;;;22.70;70.30;;;;;;4190274;28;20131;-49
2021/07/22 07:38:44;;;;;;;0.25;0.20;;;22.70;69.20;;;;;;4190609;28;20048;-49
2021/07/22 07:41:07;;;;;;;0.00;0.00;;;22.70;68.80;;;;;;4205225;28;20146;-46
2021/07/22 07:43:29;;;;;;;0.32;0.32;;;22.70;68.80;;;;;;4205219;28;20551;-47
2021/07/22 07:45:51;;;;;;;0.10;0.10;;;22.70;68.80;;;;;;4207099;28;20044;-46
2021/07/22 07:48:13;;;;;;;0.00;0.00;;;22.70;68.70;;;;;;4206433;28;20052;-53
2021/07/22 07:50:36;;;;;;;0.20;0.20;;;22.70;68.40;;;;;;4208931;28;20072;-50
2021/07/22 07:52:58;;;;;;;0.15;0.15;;;22.70;68.20;;;;;;4207507;28;20498;-48
2021/07/22 07:55:20;;;;;;;0.00;0.00;;;22.80;67.80;;;;;;4205421;28;20048;-48
2021/07/22 07:57:43;;;;;;;0.00;0.00;;;22.80;67.40;;;;;;4199028;28;20051;-47
2021/07/22 08:00:07;;;;;;;4.75;2.83;;;22.80;67.10;;;;;;4190802;28;20399;-51
2021/07/22 08:02:36;;;;;;;2.28;2.08;;;22.80;67.00;;;;;;4203532;28;20055;-46
2021/07/22 08:04:58;;;;;;;0.88;0.88;;;22.80;66.50;;;;;;4190853;28;20052;-48
2021/07/22 08:07:20;;;;;;;0.10;0.10;;;22.80;66.50;;;;;;4197650;28;20144;-51
2021/07/22 08:09:44;;;;;;;0.08;0.08;;;22.90;65.40;;;;;;4207010;28;20126;-48
2021/07/22 08:12:06;;;;;;;0.10;0.10;;;22.90;65.30;;;;;;4206742;28;20040;-48
2021/07/22 08:14:36;;;;;;;0.00;0.00;;;23.00;65.60;;;;;;4207386;28;20044;-48
2021/07/22 08:16:58;;;;;;;0.00;0.00;;;23.00;65.50;;;;;;4191027;28;20053;-48
2021/07/22 08:19:20;;;;;;;0.70;0.70;;;23.10;65.40;;;;;;4205065;28;20052;-49
2021/07/22 08:21:42;;;;;;;0.00;0.00;;;23.10;65.20;;;;;;4200507;28;20054;-46
2021/07/22 08:24:05;;;;;;;0.00;0.00;;;23.20;65.00;;;;;;4209079;28;20062;-52
2021/07/22 08:26:27;;;;;;;0.00;0.00;;;23.20;64.60;;;;;;4209964;28;20076;-52
2021/07/22 08:28:49;;;;;;;0.13;0.13;;;23.20;64.50;;;;;;4210731;28;20048;-48
2021/07/22 08:31:13;;;;;;;3.50;0.45;;;23.30;64.60;;;;;;4210894;28;20056;-47
2021/07/22 08:33:35;;;;;;;0.43;0.38;;;23.30;64.80;;;;;;4210517;28;20149;-44
2021/07/22 08:35:57;;;;;;;3.20;0.47;;;23.30;64.60;;;;;;4210145;28;20723;-47
2021/07/22 08:38:19;;;;;;;0.00;0.00;;;23.30;64.50;;;;;;4210400;28;20062;-49
2021/07/22 08:40:42;;;;;;;0.00;0.00;;;23.30;64.40;;;;;;4210606;27;20139;-47
2021/07/22 08:43:04;;;;;;;0.00;0.00;;;23.30;64.50;;;;;;4193373;28;20052;-47
2021/07/22 08:45:26;;;;;;;0.00;0.00;;;23.30;64.60;;;;;;4193717;28;20147;-46
2021/07/22 08:47:51;;;;;;;0.00;0.00;;;23.30;64.60;;;;;;4193611;28;20060;-49
2021/07/22 08:50:15;;;;;;;6.43;0.35;;;23.30;64.60;;;;;;4193658;28;20051;-50
2021/07/22 08:52:37;;;;;;;0.17;0.17;;;23.30;64.50;;;;;;4193445;28;20060;-50
2021/07/22 08:54:59;;;;;;;0.03;0.03;;;23.30;65.30;;;;;;4193055;28;20118;-48
2021/07/22 08:57:29;;;;;;;0.10;0.10;;;23.30;64.20;;;;;;4193122;28;20048;-48
2021/07/22 08:59:51;;;;;;;0.63;0.40;;;23.40;64.20;;;;;;4192980;28;20052;-48
2021/07/22 09:02:19;;;;;;;0.00;0.00;;;23.50;64.00;;;;;;4193494;28;20550;-48
2021/07/22 09:04:51;;;;;;;3.42;1.67;;;23.50;63.90;;;;;;4193122;28;20487;-49
2021/07/22 09:07:13;;;;;;;0.00;0.00;;;23.50;63.80;;;;;;4193597;28;20060;-47
2021/07/22 09:09:35;;;;;;;0.03;0.03;;;23.50;63.70;;;;;;4193013;28;20302;-46
2021/07/22 09:11:59;;;;;;;0.00;0.00;;;23.50;63.80;;;;;;4192678;28;20051;-47
2021/07/22 09:14:21;;;;;;;0.52;0.52;;;23.50;63.80;;;;;;4192824;28;20048;-47
2021/07/22 09:16:44;;;;;;;0.00;0.00;;;23.50;63.60;;;;;;4192320;28;20135;-47
2021/07/22 09:19:06;;;;;;;0.47;0.40;;;23.50;63.50;;;;;;4193077;28;20554;-48
2021/07/22 09:21:30;;;;;;;0.05;0.05;;;23.50;63.20;;;;;;4176873;28;20064;-48
2021/07/22 09:24:04;;;;;;;0.05;0.05;;;23.50;63.00;;;;;;4184253;28;20040;-50
2021/07/22 09:26:32;;;;;;;0.57;0.45;;;23.60;62.50;;;;;;4209487;27;20083;-46
2021/07/22 09:29:03;;;;;;;1.75;1.55;;;23.60;62.40;;;;;;4207961;28;20138;-48
2021/07/22 09:31:27;;;;;;;0.10;0.10;;;23.60;62.20;;;;;;4209487;28;20047;-46
2021/07/22 09:33:49;;;;;;;0.38;0.38;;;23.60;61.90;;;;;;4209569;28;20129;-48
2021/07/22 09:36:34;;;;;;;0.00;0.00;;;23.60;61.70;;;;;;4209312;28;20091;-46
2021/07/22 09:39:19;;;;;;;0.52;0.52;;;23.70;61.60;;;;;;4209200;28;20043;-47
2021/07/22 09:41:41;;;;;;;0.00;0.00;;;23.70;61.30;;;;;;4209224;28;20469;-46
2021/07/22 09:44:03;;;;;;;0.00;0.00;;;23.70;61.40;;;;;;4209576;28;20051;-49
2021/07/22 09:46:41;;;;;;;0.85;0.65;;;23.70;61.10;;;;;;4209315;28;20052;-46
2021/07/22 09:49:10;;;;;;;0.00;0.00;;;23.80;60.70;;;;;;4208739;28;20036;-48
2021/07/22 09:51:32;;;;;;;0.10;0.10;;;23.80;60.50;;;;;;4209600;28;20051;-46
2021/07/22 09:54:07;;;;;;;0.20;0.20;;;23.80;60.00;;;;;;4209134;28;20047;-49
2021/07/22 09:56:37;;;;;;;0.00;0.00;;;23.80;60.00;;;;;;4208682;28;20046;-47
2021/07/22 09:58:59;;;;;;;0.03;0.03;;;23.80;60.00;;;;;;4209109;28;20044;-46
2021/07/22 10:01:25;;;;;;;0.00;0.00;;;23.80;60.10;;;;;;4209548;28;20568;-46
2021/07/22 10:03:47;;;;;;;0.00;0.00;;;23.80;60.30;;;;;;4209334;28;20047;-47
2021/07/22 10:06:10;;;;;;;0.10;0.10;;;23.80;60.50;;;;;;4207467;28;20048;-46
2021/07/22 10:08:33;;;;;;;0.22;0.22;;;23.90;60.40;;;;;;4208798;28;20052;-49
2021/07/22 10:10:56;;;;;;;0.30;0.30;;;23.90;60.30;;;;;;4209291;28;20052;-50
2021/07/22 10:13:27;;;;;;;0.10;0.10;;;23.90;60.20;;;;;;4208981;28;20105;-46
2021/07/22 10:15:50;;;;;;;0.00;0.00;;;23.90;59.80;;;;;;4208855;28;20052;-46
2021/07/22 10:18:13;;;;;;;0.00;0.00;;;24.00;59.90;;;;;;4206985;28;20142;-49
2021/07/22 10:20:36;;;;;;;0.43;0.43;;;24.00;59.60;;;;;;4207960;28;20529;-46
2021/07/22 10:23:01;;;;;;;0.10;0.10;;;24.00;59.50;;;;;;4208819;28;20047;-51
2021/07/22 10:25:24;;;;;;;0.25;0.15;;;24.00;59.50;;;;;;4208903;28;20047;-54
2021/07/22 10:27:47;;;;;;;0.13;0.13;;;24.10;60.70;;;;;;4207876;28;20044;-48
2021/07/22 10:30:14;;;;;;;0.20;0.20;;;24.00;60.90;;;;;;4208482;28;20047;-50
2021/07/22 10:32:39;;;;;;;0.10;0.10;;;24.10;60.50;;;;;;4208822;28;20100;-47
2021/07/22 10:35:02;;;;;;;1.48;0.90;;;24.10;60.30;;;;;;4208119;28;20070;-50
2021/07/22 10:37:24;;;;;;;2.85;2.75;;;24.10;60.20;;;;;;4208396;28;20124;-51
2021/07/22 10:40:00;;;;;;;3.20;3.00;;;24.10;60.00;;;;;;4208111;28;20486;-51
2021/07/22 10:42:43;;;;;;;8.90;8.15;;;24.10;59.90;;;;;;4191760;28;20058;-49
2021/07/22 10:45:27;;;;;;;5.60;5.18;;;24.10;59.60;;;;;;4190067;28;20067;-47
2021/07/22 10:48:02;;;;;;;36.28;8.73;;;24.20;59.50;;;;;;4192787;28;20053;-52
2021/07/22 10:50:54;;;;;;;6.32;5.88;;;24.20;59.30;;;;;;4205396;28;20553;-51
2021/07/22 10:53:16;;;;;;;6.53;4.82;;;24.20;59.00;;;;;;4207806;28;20105;-52
2021/07/22 10:55:50;;;;;;;15.15;7.25;;;24.20;58.70;;;;;;4208252;28;20127;-47
2021/07/22 10:58:42;;;;;;;10.50;5.75;;;24.10;58.50;;;;;;4207224;28;20180;-47
2021/07/22 11:01:07;;;;;;;8.63;4.20;;;24.10;58.40;;;;;;4208065;28;20097;-54
2021/07/22 11:03:54;;;;;;;6.28;5.03;;;24.20;58.40;;;;;;4208041;28;20048;-49
2021/07/22 11:06:17;;;;;;;3.60;3.40;;;24.10;58.20;;;;;;4177880;28;20491;-49
2021/07/22 11:08:43;;;;;;;2.67;2.58;;;24.10;58.20;;;;;;4175082;28;20055;-46
2021/07/22 11:11:07;;;;;;;8.40;7.57;;;24.20;58.20;;;;;;4190218;28;20057;-50
2021/07/22 11:13:46;;;;;;;7.03;5.63;;;24.10;58.00;;;;;;4191802;27;20371;-50
2021/07/22 11:16:11;;;;;;;9.38;2.72;;;24.20;58.00;;;;;;4206169;28;20482;-49
2021/07/22 11:18:54;;;;;;;13.77;3.03;;;24.10;57.60;;;;;;4206060;28;20048;-51
2021/07/22 11:21:20;;;;;;;2.47;2.28;;;24.10;57.40;;;;;;4207507;28;20051;-49
2021/07/22 11:23:42;;;;;;;1.30;1.30;;;24.10;57.40;;;;;;4207964;28;20464;-53
2021/07/22 11:26:05;;;;;;;3.55;3.35;;;24.10;57.60;;;;;;4207874;28;20436;-52
2021/07/22 11:28:28;;;;;;;6.35;3.85;;;24.10;57.40;;;;;;4206693;28;20059;-46
2021/07/22 11:31:05;;;;;;;5.72;3.05;;;24.10;57.50;;;;;;4191358;28;20060;-51
2021/07/22 11:33:30;;;;;;;1.85;1.77;;;24.10;57.80;;;;;;4207632;28;20055;-50
2021/07/22 11:35:57;;;;;;;1.65;1.52;;;24.20;58.10;;;;;;4208236;28;20105;-50
2021/07/22 11:38:19;;;;;;;0.75;0.75;;;24.20;58.30;;;;;;4207768;28;20502;-47
2021/07/22 11:40:42;;;;;;;18.48;4.85;;;24.20;58.40;;;;;;4208051;28;20054;-47
2021/07/22 11:43:05;;;;;;;1.02;1.02;;;24.20;58.40;;;;;;4207388;28;20044;-51
2021/07/22 11:45:27;;;;;;;1.60;1.50;;;24.20;58.40;;;;;;4207862;28;20139;-50
2021/07/22 11:47:52;;;;;;;7.82;5.25;;;24.20;58.30;;;;;;4207399;28;20056;-48
2021/07/22 11:50:16;;;;;;;1.98;1.77;;;24.20;58.40;;;;;;4193546;28;20105;-48
2021/07/22 11:52:38;;;;;;;1.05;1.05;;;24.20;58.40;;;;;;4189576;27;20862;-46
2021/07/22 11:55:04;;;;;;;1.73;1.60;;;24.20;58.30;;;;;;4207545;28;20513;-52
2021/07/22 11:57:27;;;;;;;2.28;2.15;;;24.30;58.30;;;;;;4207546;28;20518;-49
2021/07/22 11:59:49;;;;;;;0.93;0.93;;;24.30;58.10;;;;;;4206448;28;20087;-48
2021/07/22 12:02:17;;;;;;;1.85;1.35;;;24.20;57.90;;;;;;4207914;28;20079;-49
2021/07/22 12:04:40;;;;;;;2.25;2.15;;;24.30;57.80;;;;;;4207327;28;20441;-48
2021/07/22 12:07:06;;;;;;;0.30;0.30;;;24.30;57.60;;;;;;4207184;28;20052;-50
2021/07/22 12:09:29;;;;;;;0.10;0.10;;;24.30;57.70;;;;;;4206440;28;20126;-50
2021/07/22 12:11:53;;;;;;;0.60;0.60;;;24.30;57.70;;;;;;4207704;28;20056;-51
2021/07/22 12:14:23;;;;;;;0.40;0.20;;;24.30;57.70;;;;;;4207750;28;20056;-48
2021/07/22 12:16:48;;;;;;;0.20;0.20;;;24.30;57.60;;;;;;4207164;28;20135;-50
2021/07/22 12:19:10;;;;;;;0.45;0.45;;;24.40;57.60;;;;;;4207580;28;20055;-48
2021/07/22 12:21:33;;;;;;;4.57;0.52;;;24.40;57.60;;;;;;4193165;27;20490;-49
2021/07/22 12:24:18;;;;;;;0.30;0.30;;;24.50;57.60;;;;;;4207026;28;20052;-51
2021/07/22 12:26:40;;;;;;;0.55;0.55;;;24.50;57.60;;;;;;4207267;28;20044;-52
2021/07/22 12:29:04;;;;;;;0.10;0.10;;;24.50;57.50;;;;;;4206143;28;20055;-50
2021/07/22 12:31:26;;;;;;;1.00;0.50;;;24.50;57.50;;;;;;4207489;28;20048;-47
2021/07/22 12:33:59;;;;;;;0.00;0.00;;;24.50;57.30;;;;;;4205795;28;20059;-47
2021/07/22 12:36:22;;;;;;;0.35;0.35;;;24.50;57.40;;;;;;4206605;28;20498;-48
2021/07/22 12:38:44;;;;;;;0.55;0.55;;;24.50;58.00;;;;;;4207573;28;20492;-48
2021/07/22 12:41:09;;;;;;;1.23;1.23;;;24.50;57.30;;;;;;4207665;28;20109;-51
2021/07/22 12:43:48;;;;;;;0.43;0.43;;;24.50;57.20;;;;;;4207225;28;20513;-49
2021/07/22 12:46:16;;;;;;;0.47;0.47;;;24.50;57.10;;;;;;4206732;28;20066;-52